This is the latest recevied weather packets stored in our database for station/object YC0TBU-4. If no packets are shown the sender has not sent any weather packets the latest 10 day(s).
| Time | Temp. | Humidity | Pressure | Rain* | Wind** | Luminosity | Snow |
|---|---|---|---|---|---|---|---|
| 1787600789 | 27.78° C | 43% | 1015.3 hPa | - | - | - | - |
| 1787598989 | 27.78° C | 43% | 1015.3 hPa | - | - | - | - |
| 1787597189 | 28.33° C | 42% | 1015.4 hPa | - | - | - | - |
| 1787595373 | 28.33° C | 42% | 1015.6 hPa | - | - | - | - |
| 1787593573 | 27.78° C | 42% | 1015.8 hPa | - | - | - | - |
| 1787591773 | 28.33° C | 41% | 1016.2 hPa | - | - | - | - |
| 1787589973 | 28.33° C | 41% | 1016.4 hPa | - | - | - | - |
| 1787588156 | 28.33° C | 42% | 1016.7 hPa | - | - | - | - |
| 1787586356 | 28.33° C | 43% | 1016.6 hPa | - | - | - | - |
| 1787584556 | 25° C | 50% | 1016.5 hPa | - | - | - | - |
| 1787582756 | 25° C | 50% | 1016.4 hPa | - | - | - | - |
| 1787580956 | 24.44° C | 50% | 1016.2 hPa | - | - | - | - |
| 1787579156 | 23.89° C | 51% | 1015.8 hPa | - | - | - | - |
| 1787577356 | 24.44° C | 49% | 1015.3 hPa | - | - | - | - |
| 1787575556 | 23.89° C | 50% | 1014.8 hPa | - | - | - | - |
| 1787573756 | 24.44° C | 47% | 1014.4 hPa | - | - | - | - |
| 1787571956 | 25.56° C | 45% | 1013.8 hPa | - | - | - | - |
| 1787570156 | 25.56° C | 45% | 1013.2 hPa | - | - | - | - |
| 1787568356 | 26.67° C | 43% | 1012.9 hPa | - | - | - | - |
| 1787566556 | 26.67° C | 42% | 1012.6 hPa | - | - | - | - |
| 1787564756 | 26.67° C | 42% | 1012.2 hPa | - | - | - | - |
| 1787562956 | 27.22° C | 41% | 1012.1 hPa | - | - | - | - |
| 1787561156 | 28.89° C | 39% | 1012 hPa | - | - | - | - |
| 1787559356 | 29.44° C | 37% | 1012 hPa | - | - | - | - |
| 1787557556 | 29.44° C | 35% | 1012.2 hPa | - | - | - | - |
* Rain since midnight (hover to see other rain measurements)
** Current wind speed in m/s (hover to see current wind gust speed)